Gooding Municipal Airport


Codes: KGNG/GNG
Name: Gooding Municipal Airport
City: Gooding
Country: United States
Elevation: 3732 ft.
Website:

Photos at Gooding Municipal Airport


   Photos courtesy of SpottingLog. You can add your own sightings and photos by signing up for a free trial today.



No photos found.

Weather at Gooding Municipal Airport


Time (UTC)DescriptionTempratureWindCloud coverageVisibilityPressureHumidity
23-May-2024 21:00Overcast Clouds11°C22 mph, 99%10000m1011hPa34%
24-May-2024 00:00Overcast Clouds12°C18 mph, W89%10000m1011hPa36%
24-May-2024 03:00Scattered Clouds10°C9 mph, SW33%10000m1012hPa48%
24-May-2024 06:00Clear Sky7°C4 mph, SE0%10000m1014hPa71%
24-May-2024 09:00Clear Sky5°C4 mph, E0%10000m1014hPa76%
24-May-2024 12:00Clear Sky5°C4 mph, NE0%10000m1013hPa77%
24-May-2024 15:00Clear Sky12°C7 mph, E0%10000m1011hPa51%
24-May-2024 18:00Clear Sky17°C4 mph, S2%10000m1008hPa33%
24-May-2024 21:00Overcast Clouds20°C7 mph, W86%10000m1005hPa23%
25-May-2024 00:00Overcast Clouds20°C4 mph, NW93%10000m1002hPa19%
25-May-2024 03:00Overcast Clouds16°C4 mph, W100%10000m1001hPa26%
25-May-2024 06:00Overcast Clouds14°C2 mph, S100%10000m1001hPa30%
25-May-2024 09:00Overcast Clouds12°C9 mph, NW99%10000m1002hPa48%
25-May-2024 12:00Overcast Clouds9°C13 mph, W98%10000m1004hPa76%
25-May-2024 15:00Light Rain11°C16 mph, W100%10000m1006hPa71%
25-May-2024 18:00Broken Clouds16°C22 mph, W77%10000m1006hPa36%
25-May-2024 21:00Broken Clouds18°C22 mph, W75%10000m1005hPa26%
26-May-2024 00:00Broken Clouds18°C22 mph, NW63%10000m1005hPa25%
26-May-2024 03:00Overcast Clouds13°C11 mph, NW86%10000m1006hPa30%
26-May-2024 06:00Broken Clouds8°C11 mph, W80%10000m1011hPa49%
26-May-2024 09:00Clear Sky6°C13 mph, W1%10000m1015hPa54%
26-May-2024 12:00Clear Sky3°C11 mph, W0%10000m1018hPa62%
26-May-2024 15:00Few Clouds9°C16 mph, W20%10000m1018hPa45%
26-May-2024 18:00Few Clouds14°C18 mph, W18%10000m1017hPa32%
26-May-2024 21:00Clear Sky18°C16 mph, W1%10000m1015hPa26%
27-May-2024 00:00Clear Sky19°C16 mph, W1%10000m1014hPa23%
27-May-2024 03:00Clear Sky12°C9 mph, W2%10000m1016hPa37%
27-May-2024 06:00Clear Sky8°C4 mph, S5%10000m1018hPa56%
27-May-2024 09:00Few Clouds7°C2 mph, E12%10000m1018hPa60%
27-May-2024 12:00Clear Sky6°C4 mph, NE8%10000m1019hPa60%
27-May-2024 15:00Clear Sky14°C4 mph, E2%10000m1019hPa37%
27-May-2024 18:00Clear Sky20°C4 mph, SW6%10000m1017hPa25%
27-May-2024 21:00Scattered Clouds24°C7 mph, W44%10000m1015hPa21%
28-May-2024 00:00Broken Clouds25°C7 mph, W54%10000m1013hPa19%
28-May-2024 03:00Broken Clouds16°C0 mph, NE70%10000m1013hPa40%
28-May-2024 06:00Scattered Clouds14°C4 mph, E35%10000m1014hPa33%
28-May-2024 09:00Clear Sky14°C7 mph, NE2%10000m1015hPa39%
28-May-2024 12:00Clear Sky13°C7 mph, NE7%10000m1015hPa45%
28-May-2024 15:00Scattered Clouds20°C16 mph, E37%10000m1014hPa31%
28-May-2024 18:00Scattered Clouds27°C9 mph, E37%10000m1012hPa23%